sensor_id;sensor_type;location;lat;lon;timestamp;P1;durP1;ratioP1;P2;durP2;ratioP2
24891;SDS011;12954;50.688;10.908;2022-10-28T00:01:20;6.43;;;2.80;;
24891;SDS011;12954;50.688;10.908;2022-10-28T00:03:51;5.60;;;2.28;;
24891;SDS011;12954;50.688;10.908;2022-10-28T00:06:21;6.45;;;2.53;;
24891;SDS011;12954;50.688;10.908;2022-10-28T00:08:50;11.18;;;2.90;;
24891;SDS011;12954;50.688;10.908;2022-10-28T00:11:21;7.95;;;2.83;;
24891;SDS011;12954;50.688;10.908;2022-10-28T00:13:51;7.75;;;3.08;;
24891;SDS011;12954;50.688;10.908;2022-10-28T00:16:21;7.85;;;3.00;;
24891;SDS011;12954;50.688;10.908;2022-10-28T00:18:50;6.80;;;2.90;;
24891;SDS011;12954;50.688;10.908;2022-10-28T00:21:20;8.10;;;2.85;;
24891;SDS011;12954;50.688;10.908;2022-10-28T00:23:50;8.25;;;2.72;;
24891;SDS011;12954;50.688;10.908;2022-10-28T00:26:21;7.18;;;2.22;;
24891;SDS011;12954;50.688;10.908;2022-10-28T00:28:51;10.98;;;2.92;;
24891;SDS011;12954;50.688;10.908;2022-10-28T00:31:23;7.55;;;2.75;;
24891;SDS011;12954;50.688;10.908;2022-10-28T00:33:53;6.13;;;2.45;;
24891;SDS011;12954;50.688;10.908;2022-10-28T00:36:23;7.50;;;2.78;;
24891;SDS011;12954;50.688;10.908;2022-10-28T00:38:53;7.82;;;2.90;;
24891;SDS011;12954;50.688;10.908;2022-10-28T00:41:24;8.43;;;3.08;;
24891;SDS011;12954;50.688;10.908;2022-10-28T00:43:55;11.02;;;3.53;;
24891;SDS011;12954;50.688;10.908;2022-10-28T00:46:26;9.20;;;2.75;;
24891;SDS011;12954;50.688;10.908;2022-10-28T00:48:58;6.45;;;2.40;;
24891;SDS011;12954;50.688;10.908;2022-10-28T00:51:29;11.85;;;3.08;;
24891;SDS011;12954;50.688;10.908;2022-10-28T00:54:00;7.57;;;3.10;;
24891;SDS011;12954;50.688;10.908;2022-10-28T00:56:33;13.40;;;2.92;;
24891;SDS011;12954;50.688;10.908;2022-10-28T00:59:07;9.85;;;3.35;;
24891;SDS011;12954;50.688;10.908;2022-10-28T01:01:40;8.77;;;2.83;;
24891;SDS011;12954;50.688;10.908;2022-10-28T01:04:09;6.88;;;3.08;;
24891;SDS011;12954;50.688;10.908;2022-10-28T01:06:38;8.65;;;2.90;;
24891;SDS011;12954;50.688;10.908;2022-10-28T01:09:08;9.05;;;2.65;;
24891;SDS011;12954;50.688;10.908;2022-10-28T01:11:44;8.43;;;2.65;;
24891;SDS011;12954;50.688;10.908;2022-10-28T01:14:29;7.57;;;3.28;;
24891;SDS011;12954;50.688;10.908;2022-10-28T01:17:18;5.95;;;3.00;;
24891;SDS011;12954;50.688;10.908;2022-10-28T01:23:08;8.18;;;2.75;;
24891;SDS011;12954;50.688;10.908;2022-10-28T01:25:47;6.40;;;2.95;;
24891;SDS011;12954;50.688;10.908;2022-10-28T01:28:39;7.03;;;3.28;;
24891;SDS011;12954;50.688;10.908;2022-10-28T01:31:34;7.93;;;3.25;;
24891;SDS011;12954;50.688;10.908;2022-10-28T01:34:09;4.72;;;2.72;;
24891;SDS011;12954;50.688;10.908;2022-10-28T01:36:47;7.63;;;2.83;;
24891;SDS011;12954;50.688;10.908;2022-10-28T01:39:27;7.22;;;3.00;;
24891;SDS011;12954;50.688;10.908;2022-10-28T01:42:01;10.18;;;3.38;;
24891;SDS011;12954;50.688;10.908;2022-10-28T01:44:44;8.20;;;3.17;;
24891;SDS011;12954;50.688;10.908;2022-10-28T01:47:18;6.07;;;2.90;;
24891;SDS011;12954;50.688;10.908;2022-10-28T01:49:50;8.93;;;3.10;;
24891;SDS011;12954;50.688;10.908;2022-10-28T01:52:26;10.85;;;3.70;;
24891;SDS011;12954;50.688;10.908;2022-10-28T01:54:58;9.90;;;3.28;;
24891;SDS011;12954;50.688;10.908;2022-10-28T01:57:30;10.93;;;3.30;;
24891;SDS011;12954;50.688;10.908;2022-10-28T02:00:02;7.70;;;3.50;;
24891;SDS011;12954;50.688;10.908;2022-10-28T02:02:33;7.82;;;3.20;;
24891;SDS011;12954;50.688;10.908;2022-10-28T02:05:05;9.68;;;2.60;;
24891;SDS011;12954;50.688;10.908;2022-10-28T02:07:55;8.32;;;3.25;;
24891;SDS011;12954;50.688;10.908;2022-10-28T02:10:31;9.50;;;2.97;;
24891;SDS011;12954;50.688;10.908;2022-10-28T02:13:04;9.82;;;2.70;;
24891;SDS011;12954;50.688;10.908;2022-10-28T02:15:39;12.30;;;3.03;;
24891;SDS011;12954;50.688;10.908;2022-10-28T02:18:19;9.38;;;3.17;;
24891;SDS011;12954;50.688;10.908;2022-10-28T02:20:54;7.90;;;2.63;;
24891;SDS011;12954;50.688;10.908;2022-10-28T02:23:32;12.27;;;3.33;;
24891;SDS011;12954;50.688;10.908;2022-10-28T02:26:11;6.57;;;3.17;;
24891;SDS011;12954;50.688;10.908;2022-10-28T02:28:48;7.28;;;3.03;;
24891;SDS011;12954;50.688;10.908;2022-10-28T02:31:22;10.10;;;3.28;;
24891;SDS011;12954;50.688;10.908;2022-10-28T02:33:56;9.60;;;3.45;;
24891;SDS011;12954;50.688;10.908;2022-10-28T02:36:28;7.13;;;3.40;;
24891;SDS011;12954;50.688;10.908;2022-10-28T02:41:32;7.97;;;3.20;;
24891;SDS011;12954;50.688;10.908;2022-10-28T02:44:07;7.68;;;3.22;;
24891;SDS011;12954;50.688;10.908;2022-10-28T02:46:38;8.60;;;3.13;;
24891;SDS011;12954;50.688;10.908;2022-10-28T02:49:11;9.52;;;3.15;;
24891;SDS011;12954;50.688;10.908;2022-10-28T02:51:42;10.52;;;3.22;;
24891;SDS011;12954;50.688;10.908;2022-10-28T02:54:14;7.47;;;3.05;;
24891;SDS011;12954;50.688;10.908;2022-10-28T02:56:46;8.35;;;3.15;;
24891;SDS011;12954;50.688;10.908;2022-10-28T02:59:18;8.80;;;3.25;;
24891;SDS011;12954;50.688;10.908;2022-10-28T03:01:47;7.53;;;3.50;;
24891;SDS011;12954;50.688;10.908;2022-10-28T03:04:17;7.30;;;3.60;;
24891;SDS011;12954;50.688;10.908;2022-10-28T03:06:45;10.18;;;3.28;;
24891;SDS011;12954;50.688;10.908;2022-10-28T03:09:14;7.55;;;3.17;;
24891;SDS011;12954;50.688;10.908;2022-10-28T03:11:42;12.32;;;3.38;;
24891;SDS011;12954;50.688;10.908;2022-10-28T03:14:11;10.95;;;3.38;;
24891;SDS011;12954;50.688;10.908;2022-10-28T03:16:40;9.65;;;3.03;;
24891;SDS011;12954;50.688;10.908;2022-10-28T03:19:09;10.45;;;3.03;;
24891;SDS011;12954;50.688;10.908;2022-10-28T03:21:39;9.95;;;3.00;;
24891;SDS011;12954;50.688;10.908;2022-10-28T03:24:07;7.60;;;3.28;;
24891;SDS011;12954;50.688;10.908;2022-10-28T03:26:36;8.70;;;3.20;;
24891;SDS011;12954;50.688;10.908;2022-10-28T03:29:04;10.15;;;3.30;;
24891;SDS011;12954;50.688;10.908;2022-10-28T03:31:33;6.63;;;3.03;;
24891;SDS011;12954;50.688;10.908;2022-10-28T03:34:01;9.48;;;3.75;;
24891;SDS011;12954;50.688;10.908;2022-10-28T03:36:30;9.35;;;3.33;;
24891;SDS011;12954;50.688;10.908;2022-10-28T03:39:00;14.63;;;3.90;;
24891;SDS011;12954;50.688;10.908;2022-10-28T03:41:28;7.22;;;2.78;;
24891;SDS011;12954;50.688;10.908;2022-10-28T03:43:57;8.57;;;3.25;;
24891;SDS011;12954;50.688;10.908;2022-10-28T03:46:26;7.53;;;3.53;;
24891;SDS011;12954;50.688;10.908;2022-10-28T03:48:58;8.53;;;3.23;;
24891;SDS011;12954;50.688;10.908;2022-10-28T03:51:27;7.45;;;2.75;;
24891;SDS011;12954;50.688;10.908;2022-10-28T03:53:55;10.23;;;3.67;;
24891;SDS011;12954;50.688;10.908;2022-10-28T03:56:25;11.43;;;3.10;;
24891;SDS011;12954;50.688;10.908;2022-10-28T03:58:53;10.48;;;2.95;;
24891;SDS011;12954;50.688;10.908;2022-10-28T04:01:22;7.07;;;2.80;;
24891;SDS011;12954;50.688;10.908;2022-10-28T04:03:51;7.57;;;2.60;;
24891;SDS011;12954;50.688;10.908;2022-10-28T04:06:19;13.68;;;3.15;;
24891;SDS011;12954;50.688;10.908;2022-10-28T04:08:48;8.30;;;3.53;;
24891;SDS011;12954;50.688;10.908;2022-10-28T04:11:16;8.05;;;3.33;;
24891;SDS011;12954;50.688;10.908;2022-10-28T04:13:46;9.57;;;3.10;;
24891;SDS011;12954;50.688;10.908;2022-10-28T04:16:15;9.00;;;3.60;;
24891;SDS011;12954;50.688;10.908;2022-10-28T04:18:43;7.22;;;3.25;;
24891;SDS011;12954;50.688;10.908;2022-10-28T04:21:12;8.95;;;3.28;;
24891;SDS011;12954;50.688;10.908;2022-10-28T04:23:40;8.02;;;3.50;;
24891;SDS011;12954;50.688;10.908;2022-10-28T04:26:09;8.23;;;3.63;;
24891;SDS011;12954;50.688;10.908;2022-10-28T04:28:38;8.93;;;3.25;;
24891;SDS011;12954;50.688;10.908;2022-10-28T04:31:08;10.52;;;3.63;;
24891;SDS011;12954;50.688;10.908;2022-10-28T04:33:37;9.02;;;3.42;;
24891;SDS011;12954;50.688;10.908;2022-10-28T04:36:06;9.20;;;3.38;;
24891;SDS011;12954;50.688;10.908;2022-10-28T04:38:34;7.75;;;3.28;;
24891;SDS011;12954;50.688;10.908;2022-10-28T04:41:03;10.82;;;3.53;;
24891;SDS011;12954;50.688;10.908;2022-10-28T04:43:31;7.63;;;3.28;;
24891;SDS011;12954;50.688;10.908;2022-10-28T04:46:00;7.80;;;3.28;;
24891;SDS011;12954;50.688;10.908;2022-10-28T04:48:33;12.07;;;3.55;;
24891;SDS011;12954;50.688;10.908;2022-10-28T04:51:02;11.45;;;3.70;;
24891;SDS011;12954;50.688;10.908;2022-10-28T04:53:30;10.55;;;3.28;;
24891;SDS011;12954;50.688;10.908;2022-10-28T04:55:59;8.05;;;3.10;;
24891;SDS011;12954;50.688;10.908;2022-10-28T04:58:27;9.38;;;3.65;;
24891;SDS011;12954;50.688;10.908;2022-10-28T05:00:56;10.57;;;3.60;;
24891;SDS011;12954;50.688;10.908;2022-10-28T05:03:24;14.35;;;3.92;;
24891;SDS011;12954;50.688;10.908;2022-10-28T05:05:54;8.65;;;3.33;;
24891;SDS011;12954;50.688;10.908;2022-10-28T05:08:22;6.40;;;3.00;;
24891;SDS011;12954;50.688;10.908;2022-10-28T05:10:51;11.55;;;3.30;;
24891;SDS011;12954;50.688;10.908;2022-10-28T05:13:19;7.60;;;3.20;;
24891;SDS011;12954;50.688;10.908;2022-10-28T05:15:48;8.00;;;2.85;;
24891;SDS011;12954;50.688;10.908;2022-10-28T05:18:16;7.00;;;3.03;;
24891;SDS011;12954;50.688;10.908;2022-10-28T05:20:45;9.65;;;3.30;;
24891;SDS011;12954;50.688;10.908;2022-10-28T05:23:19;9.38;;;3.60;;
24891;SDS011;12954;50.688;10.908;2022-10-28T05:25:55;9.45;;;3.30;;
24891;SDS011;12954;50.688;10.908;2022-10-28T05:28:23;10.82;;;3.15;;
24891;SDS011;12954;50.688;10.908;2022-10-28T05:30:52;9.57;;;3.22;;
24891;SDS011;12954;50.688;10.908;2022-10-28T05:33:20;7.65;;;3.03;;
24891;SDS011;12954;50.688;10.908;2022-10-28T05:35:49;10.43;;;3.60;;
24891;SDS011;12954;50.688;10.908;2022-10-28T05:38:18;13.30;;;3.17;;
24891;SDS011;12954;50.688;10.908;2022-10-28T05:40:47;7.35;;;3.40;;
24891;SDS011;12954;50.688;10.908;2022-10-28T05:43:16;9.10;;;3.15;;
24891;SDS011;12954;50.688;10.908;2022-10-28T05:45:50;6.57;;;3.42;;
24891;SDS011;12954;50.688;10.908;2022-10-28T05:48:19;9.57;;;3.28;;
24891;SDS011;12954;50.688;10.908;2022-10-28T05:50:48;13.82;;;3.90;;
24891;SDS011;12954;50.688;10.908;2022-10-28T05:53:16;7.45;;;3.10;;
24891;SDS011;12954;50.688;10.908;2022-10-28T05:55:47;7.55;;;2.90;;
24891;SDS011;12954;50.688;10.908;2022-10-28T05:58:15;7.85;;;3.30;;
24891;SDS011;12954;50.688;10.908;2022-10-28T06:00:44;9.27;;;2.70;;
24891;SDS011;12954;50.688;10.908;2022-10-28T06:03:12;7.18;;;2.63;;
24891;SDS011;12954;50.688;10.908;2022-10-28T06:05:41;12.02;;;3.33;;
24891;SDS011;12954;50.688;10.908;2022-10-28T06:08:11;10.45;;;3.28;;
24891;SDS011;12954;50.688;10.908;2022-10-28T06:10:41;7.85;;;3.22;;
24891;SDS011;12954;50.688;10.908;2022-10-28T06:13:22;8.90;;;3.25;;
24891;SDS011;12954;50.688;10.908;2022-10-28T06:15:51;9.63;;;3.17;;
24891;SDS011;12954;50.688;10.908;2022-10-28T06:18:20;9.35;;;3.15;;
24891;SDS011;12954;50.688;10.908;2022-10-28T06:20:52;9.75;;;3.58;;
24891;SDS011;12954;50.688;10.908;2022-10-28T06:23:22;9.18;;;3.85;;
24891;SDS011;12954;50.688;10.908;2022-10-28T06:25:56;12.30;;;3.33;;
24891;SDS011;12954;50.688;10.908;2022-10-28T06:28:26;10.15;;;2.90;;
24891;SDS011;12954;50.688;10.908;2022-10-28T06:31:00;9.73;;;3.85;;
24891;SDS011;12954;50.688;10.908;2022-10-28T06:33:28;12.45;;;2.80;;
24891;SDS011;12954;50.688;10.908;2022-10-28T06:35:58;9.18;;;3.20;;
24891;SDS011;12954;50.688;10.908;2022-10-28T06:38:27;10.00;;;3.35;;
24891;SDS011;12954;50.688;10.908;2022-10-28T06:40:58;8.18;;;3.28;;
24891;SDS011;12954;50.688;10.908;2022-10-28T06:43:26;8.77;;;2.63;;
24891;SDS011;12954;50.688;10.908;2022-10-28T06:45:55;7.20;;;3.10;;
24891;SDS011;12954;50.688;10.908;2022-10-28T06:48:27;8.13;;;3.00;;
24891;SDS011;12954;50.688;10.908;2022-10-28T06:50:56;7.22;;;2.70;;
24891;SDS011;12954;50.688;10.908;2022-10-28T06:53:25;6.45;;;2.47;;
24891;SDS011;12954;50.688;10.908;2022-10-28T06:55:54;9.30;;;3.00;;
24891;SDS011;12954;50.688;10.908;2022-10-28T06:58:25;8.88;;;2.60;;
24891;SDS011;12954;50.688;10.908;2022-10-28T07:00:54;6.95;;;2.90;;
24891;SDS011;12954;50.688;10.908;2022-10-28T07:03:22;5.35;;;2.83;;
24891;SDS011;12954;50.688;10.908;2022-10-28T07:05:51;7.70;;;2.83;;
24891;SDS011;12954;50.688;10.908;2022-10-28T07:08:19;6.40;;;2.28;;
24891;SDS011;12954;50.688;10.908;2022-10-28T07:10:54;6.72;;;2.80;;
24891;SDS011;12954;50.688;10.908;2022-10-28T07:13:25;7.18;;;2.58;;
24891;SDS011;12954;50.688;10.908;2022-10-28T07:15:54;8.23;;;2.58;;
24891;SDS011;12954;50.688;10.908;2022-10-28T07:18:24;9.25;;;2.72;;
24891;SDS011;12954;50.688;10.908;2022-10-28T07:20:56;9.45;;;2.75;;
24891;SDS011;12954;50.688;10.908;2022-10-28T07:23:25;4.57;;;1.98;;
24891;SDS011;12954;50.688;10.908;2022-10-28T07:25:54;8.15;;;2.53;;
24891;SDS011;12954;50.688;10.908;2022-10-28T07:28:25;7.60;;;2.75;;
24891;SDS011;12954;50.688;10.908;2022-10-28T07:30:54;6.20;;;2.30;;
24891;SDS011;12954;50.688;10.908;2022-10-28T07:33:27;7.32;;;2.05;;
24891;SDS011;12954;50.688;10.908;2022-10-28T07:35:55;5.90;;;2.30;;
24891;SDS011;12954;50.688;10.908;2022-10-28T07:38:24;7.85;;;2.80;;
24891;SDS011;12954;50.688;10.908;2022-10-28T07:40:52;5.72;;;2.03;;
24891;SDS011;12954;50.688;10.908;2022-10-28T07:43:20;7.05;;;2.53;;
24891;SDS011;12954;50.688;10.908;2022-10-28T07:45:55;7.15;;;2.03;;
24891;SDS011;12954;50.688;10.908;2022-10-28T07:48:24;6.97;;;2.05;;
24891;SDS011;12954;50.688;10.908;2022-10-28T07:50:53;8.57;;;2.35;;
24891;SDS011;12954;50.688;10.908;2022-10-28T07:53:21;7.10;;;2.13;;
24891;SDS011;12954;50.688;10.908;2022-10-28T07:55:54;9.80;;;2.00;;
24891;SDS011;12954;50.688;10.908;2022-10-28T07:58:23;8.13;;;2.00;;
24891;SDS011;12954;50.688;10.908;2022-10-28T08:00:52;8.00;;;2.05;;
24891;SDS011;12954;50.688;10.908;2022-10-28T08:03:23;7.85;;;1.98;;
24891;SDS011;12954;50.688;10.908;2022-10-28T08:06:04;6.18;;;2.08;;
24891;SDS011;12954;50.688;10.908;2022-10-28T08:08:35;8.98;;;2.25;;
24891;SDS011;12954;50.688;10.908;2022-10-28T08:11:07;6.35;;;1.90;;
24891;SDS011;12954;50.688;10.908;2022-10-28T08:13:36;13.43;;;4.75;;
24891;SDS011;12954;50.688;10.908;2022-10-28T08:16:06;13.15;;;5.93;;
24891;SDS011;12954;50.688;10.908;2022-10-28T08:18:36;16.85;;;7.72;;
24891;SDS011;12954;50.688;10.908;2022-10-28T08:21:07;13.48;;;6.03;;
24891;SDS011;12954;50.688;10.908;2022-10-28T08:23:36;14.40;;;6.13;;
24891;SDS011;12954;50.688;10.908;2022-10-28T08:26:05;11.52;;;5.85;;
24891;SDS011;12954;50.688;10.908;2022-10-28T08:28:33;9.75;;;4.75;;
24891;SDS011;12954;50.688;10.908;2022-10-28T08:31:02;13.40;;;3.88;;
24891;SDS011;12954;50.688;10.908;2022-10-28T08:33:37;10.15;;;2.92;;
24891;SDS011;12954;50.688;10.908;2022-10-28T08:36:08;9.32;;;2.10;;
24891;SDS011;12954;50.688;10.908;2022-10-28T08:38:37;7.00;;;1.92;;
24891;SDS011;12954;50.688;10.908;2022-10-28T08:41:17;7.93;;;1.98;;
24891;SDS011;12954;50.688;10.908;2022-10-28T08:43:58;10.30;;;3.15;;
24891;SDS011;12954;50.688;10.908;2022-10-28T08:46:39;7.82;;;2.40;;
24891;SDS011;12954;50.688;10.908;2022-10-28T08:51:49;7.43;;;1.90;;
24891;SDS011;12954;50.688;10.908;2022-10-28T08:54:23;6.57;;;1.88;;
24891;SDS011;12954;50.688;10.908;2022-10-28T08:56:57;8.05;;;2.08;;
24891;SDS011;12954;50.688;10.908;2022-10-28T08:59:28;7.32;;;2.75;;
24891;SDS011;12954;50.688;10.908;2022-10-28T09:02:02;8.10;;;2.92;;
24891;SDS011;12954;50.688;10.908;2022-10-28T09:04:40;6.75;;;1.80;;
24891;SDS011;12954;50.688;10.908;2022-10-28T09:07:10;5.68;;;1.60;;
24891;SDS011;12954;50.688;10.908;2022-10-28T09:09:43;4.30;;;1.45;;
24891;SDS011;12954;50.688;10.908;2022-10-28T09:12:15;6.63;;;2.20;;
24891;SDS011;12954;50.688;10.908;2022-10-28T09:15:01;7.80;;;1.90;;
24891;SDS011;12954;50.688;10.908;2022-10-28T09:17:42;6.15;;;2.00;;
24891;SDS011;12954;50.688;10.908;2022-10-28T09:20:23;5.72;;;2.10;;
24891;SDS011;12954;50.688;10.908;2022-10-28T09:23:02;7.75;;;2.05;;
24891;SDS011;12954;50.688;10.908;2022-10-28T09:25:38;5.53;;;1.75;;
24891;SDS011;12954;50.688;10.908;2022-10-28T09:28:18;11.27;;;2.33;;
24891;SDS011;12954;50.688;10.908;2022-10-28T09:30:56;7.18;;;1.90;;
24891;SDS011;12954;50.688;10.908;2022-10-28T09:33:46;6.22;;;2.00;;
24891;SDS011;12954;50.688;10.908;2022-10-28T09:36:26;7.55;;;2.30;;
24891;SDS011;12954;50.688;10.908;2022-10-28T09:38:59;6.32;;;1.90;;
24891;SDS011;12954;50.688;10.908;2022-10-28T09:41:31;8.73;;;1.98;;
24891;SDS011;12954;50.688;10.908;2022-10-28T09:44:05;11.13;;;2.10;;
24891;SDS011;12954;50.688;10.908;2022-10-28T09:46:40;12.07;;;2.00;;
24891;SDS011;12954;50.688;10.908;2022-10-28T09:49:10;9.75;;;2.05;;
24891;SDS011;12954;50.688;10.908;2022-10-28T09:51:46;13.57;;;1.92;;
24891;SDS011;12954;50.688;10.908;2022-10-28T09:54:20;8.88;;;2.22;;
24891;SDS011;12954;50.688;10.908;2022-10-28T09:56:57;7.55;;;2.08;;
24891;SDS011;12954;50.688;10.908;2022-10-28T09:59:26;10.43;;;1.98;;
24891;SDS011;12954;50.688;10.908;2022-10-28T10:01:55;10.80;;;2.30;;
24891;SDS011;12954;50.688;10.908;2022-10-28T10:04:24;8.23;;;2.20;;
24891;SDS011;12954;50.688;10.908;2022-10-28T10:06:59;5.57;;;2.20;;
24891;SDS011;12954;50.688;10.908;2022-10-28T10:09:32;6.20;;;2.15;;
24891;SDS011;12954;50.688;10.908;2022-10-28T10:12:04;9.43;;;2.20;;
24891;SDS011;12954;50.688;10.908;2022-10-28T10:14:35;9.43;;;1.90;;
24891;SDS011;12954;50.688;10.908;2022-10-28T10:17:09;11.60;;;2.35;;
24891;SDS011;12954;50.688;10.908;2022-10-28T10:22:29;6.97;;;1.98;;
24891;SDS011;12954;50.688;10.908;2022-10-28T10:24:58;9.52;;;2.70;;
24891;SDS011;12954;50.688;10.908;2022-10-28T10:27:27;6.95;;;2.42;;
24891;SDS011;12954;50.688;10.908;2022-10-28T10:29:57;9.32;;;2.00;;
24891;SDS011;12954;50.688;10.908;2022-10-28T10:32:26;6.75;;;2.15;;
24891;SDS011;12954;50.688;10.908;2022-10-28T10:35:00;10.25;;;2.35;;
24891;SDS011;12954;50.688;10.908;2022-10-28T10:37:34;17.00;;;2.70;;
24891;SDS011;12954;50.688;10.908;2022-10-28T10:40:05;11.27;;;2.55;;
24891;SDS011;12954;50.688;10.908;2022-10-28T10:42:46;8.98;;;2.60;;
24891;SDS011;12954;50.688;10.908;2022-10-28T10:45:35;8.38;;;2.83;;
24891;SDS011;12954;50.688;10.908;2022-10-28T10:48:10;9.55;;;2.42;;
24891;SDS011;12954;50.688;10.908;2022-10-28T10:50:40;6.55;;;2.08;;
24891;SDS011;12954;50.688;10.908;2022-10-28T10:53:22;8.80;;;2.47;;
24891;SDS011;12954;50.688;10.908;2022-10-28T10:55:53;12.50;;;2.75;;
24891;SDS011;12954;50.688;10.908;2022-10-28T11:00:56;8.70;;;2.40;;
24891;SDS011;12954;50.688;10.908;2022-10-28T11:03:28;12.30;;;2.92;;
24891;SDS011;12954;50.688;10.908;2022-10-28T11:06:03;11.18;;;2.40;;
24891;SDS011;12954;50.688;10.908;2022-10-28T11:08:54;13.00;;;2.22;;
24891;SDS011;12954;50.688;10.908;2022-10-28T11:11:32;6.03;;;2.20;;
24891;SDS011;12954;50.688;10.908;2022-10-28T11:14:03;8.55;;;2.30;;
24891;SDS011;12954;50.688;10.908;2022-10-28T11:16:45;11.57;;;2.85;;
24891;SDS011;12954;50.688;10.908;2022-10-28T11:19:18;8.15;;;2.33;;
24891;SDS011;12954;50.688;10.908;2022-10-28T11:24:41;6.65;;;2.25;;
24891;SDS011;12954;50.688;10.908;2022-10-28T11:27:25;8.15;;;2.33;;
24891;SDS011;12954;50.688;10.908;2022-10-28T11:30:01;8.48;;;2.30;;
24891;SDS011;12954;50.688;10.908;2022-10-28T11:32:35;9.55;;;3.17;;
24891;SDS011;12954;50.688;10.908;2022-10-28T11:35:39;8.52;;;2.88;;
24891;SDS011;12954;50.688;10.908;2022-10-28T11:38:18;9.23;;;2.50;;
24891;SDS011;12954;50.688;10.908;2022-10-28T11:41:05;10.82;;;2.22;;
24891;SDS011;12954;50.688;10.908;2022-10-28T11:43:43;9.27;;;2.55;;
24891;SDS011;12954;50.688;10.908;2022-10-28T11:46:25;9.50;;;2.15;;
24891;SDS011;12954;50.688;10.908;2022-10-28T11:51:58;8.02;;;2.28;;
24891;SDS011;12954;50.688;10.908;2022-10-28T11:54:41;6.82;;;2.10;;
24891;SDS011;12954;50.688;10.908;2022-10-28T11:57:35;12.95;;;2.42;;
24891;SDS011;12954;50.688;10.908;2022-10-28T12:00:14;9.15;;;2.53;;
24891;SDS011;12954;50.688;10.908;2022-10-28T12:02:57;9.90;;;2.28;;
24891;SDS011;12954;50.688;10.908;2022-10-28T12:05:40;9.55;;;2.10;;
24891;SDS011;12954;50.688;10.908;2022-10-28T12:08:16;11.10;;;3.28;;
24891;SDS011;12954;50.688;10.908;2022-10-28T12:11:02;7.00;;;1.90;;
24891;SDS011;12954;50.688;10.908;2022-10-28T12:13:41;6.97;;;1.98;;
24891;SDS011;12954;50.688;10.908;2022-10-28T12:16:16;7.57;;;2.10;;
24891;SDS011;12954;50.688;10.908;2022-10-28T12:18:52;9.57;;;2.38;;
24891;SDS011;12954;50.688;10.908;2022-10-28T12:21:26;7.72;;;2.80;;
24891;SDS011;12954;50.688;10.908;2022-10-28T12:24:00;12.55;;;2.30;;
24891;SDS011;12954;50.688;10.908;2022-10-28T12:26:33;7.93;;;1.83;;
24891;SDS011;12954;50.688;10.908;2022-10-28T12:29:09;9.00;;;2.40;;
24891;SDS011;12954;50.688;10.908;2022-10-28T12:31:44;7.45;;;2.42;;
24891;SDS011;12954;50.688;10.908;2022-10-28T12:34:17;8.50;;;2.05;;
24891;SDS011;12954;50.688;10.908;2022-10-28T12:36:52;10.68;;;2.60;;
24891;SDS011;12954;50.688;10.908;2022-10-28T12:39:27;9.75;;;3.03;;
24891;SDS011;12954;50.688;10.908;2022-10-28T12:42:02;14.73;;;2.92;;
24891;SDS011;12954;50.688;10.908;2022-10-28T12:44:39;11.27;;;2.30;;
24891;SDS011;12954;50.688;10.908;2022-10-28T12:47:14;6.93;;;2.03;;
24891;SDS011;12954;50.688;10.908;2022-10-28T12:49:55;12.30;;;2.63;;
24891;SDS011;12954;50.688;10.908;2022-10-28T12:52:31;8.23;;;2.17;;
24891;SDS011;12954;50.688;10.908;2022-10-28T12:55:07;7.95;;;1.98;;
24891;SDS011;12954;50.688;10.908;2022-10-28T12:57:46;11.82;;;2.10;;
24891;SDS011;12954;50.688;10.908;2022-10-28T13:00:23;10.60;;;2.08;;
24891;SDS011;12954;50.688;10.908;2022-10-28T13:02:57;8.27;;;2.20;;
24891;SDS011;12954;50.688;10.908;2022-10-28T13:05:30;9.18;;;2.13;;
24891;SDS011;12954;50.688;10.908;2022-10-28T13:11:33;9.65;;;2.45;;
24891;SDS011;12954;50.688;10.908;2022-10-28T13:14:37;8.32;;;2.33;;
24891;SDS011;12954;50.688;10.908;2022-10-28T13:17:29;6.40;;;1.88;;
24891;SDS011;12954;50.688;10.908;2022-10-28T13:20:11;12.40;;;2.28;;
24891;SDS011;12954;50.688;10.908;2022-10-28T13:22:46;10.00;;;2.35;;
24891;SDS011;12954;50.688;10.908;2022-10-28T13:28:16;8.88;;;1.98;;
24891;SDS011;12954;50.688;10.908;2022-10-28T13:30:50;9.45;;;2.30;;
24891;SDS011;12954;50.688;10.908;2022-10-28T13:33:22;9.10;;;1.83;;
24891;SDS011;12954;50.688;10.908;2022-10-28T13:35:52;8.38;;;1.90;;
24891;SDS011;12954;50.688;10.908;2022-10-28T13:38:22;14.90;;;2.60;;
24891;SDS011;12954;50.688;10.908;2022-10-28T13:50:19;8.30;;;2.17;;
24891;SDS011;12954;50.688;10.908;2022-10-28T13:56:22;8.77;;;2.15;;
24891;SDS011;12954;50.688;10.908;2022-10-28T13:59:16;11.13;;;2.53;;
24891;SDS011;12954;50.688;10.908;2022-10-28T14:01:50;7.35;;;2.42;;
24891;SDS011;12954;50.688;10.908;2022-10-28T14:04:33;7.05;;;2.03;;
24891;SDS011;12954;50.688;10.908;2022-10-28T14:07:24;7.28;;;2.28;;
24891;SDS011;12954;50.688;10.908;2022-10-28T14:09:57;10.45;;;2.20;;
24891;SDS011;12954;50.688;10.908;2022-10-28T14:12:45;9.23;;;2.35;;
24891;SDS011;12954;50.688;10.908;2022-10-28T14:15:18;7.43;;;2.25;;
24891;SDS011;12954;50.688;10.908;2022-10-28T14:17:50;7.70;;;2.10;;
24891;SDS011;12954;50.688;10.908;2022-10-28T14:20:42;12.23;;;2.85;;
24891;SDS011;12954;50.688;10.908;2022-10-28T14:29:41;8.98;;;2.20;;
24891;SDS011;12954;50.688;10.908;2022-10-28T14:35:17;7.53;;;2.53;;
24891;SDS011;12954;50.688;10.908;2022-10-28T14:38:02;6.50;;;2.35;;
24891;SDS011;12954;50.688;10.908;2022-10-28T14:40:47;17.00;;;3.25;;
24891;SDS011;12954;50.688;10.908;2022-10-28T14:43:24;9.40;;;2.67;;
24891;SDS011;12954;50.688;10.908;2022-10-28T14:48:40;9.38;;;2.38;;
24891;SDS011;12954;50.688;10.908;2022-10-28T14:51:14;9.82;;;2.67;;
24891;SDS011;12954;50.688;10.908;2022-10-28T14:53:46;6.47;;;2.25;;
24891;SDS011;12954;50.688;10.908;2022-10-28T14:56:18;7.50;;;2.28;;
24891;SDS011;12954;50.688;10.908;2022-10-28T14:58:56;8.73;;;2.22;;
24891;SDS011;12954;50.688;10.908;2022-10-28T15:01:27;12.38;;;2.63;;
24891;SDS011;12954;50.688;10.908;2022-10-28T15:04:14;8.20;;;2.47;;
24891;SDS011;12954;50.688;10.908;2022-10-28T15:06:43;6.80;;;2.17;;
24891;SDS011;12954;50.688;10.908;2022-10-28T15:09:17;9.30;;;2.33;;
24891;SDS011;12954;50.688;10.908;2022-10-28T15:11:50;9.95;;;2.55;;
24891;SDS011;12954;50.688;10.908;2022-10-28T15:14:31;10.07;;;2.75;;
24891;SDS011;12954;50.688;10.908;2022-10-28T15:17:07;14.52;;;3.30;;
24891;SDS011;12954;50.688;10.908;2022-10-28T15:19:39;11.43;;;2.30;;
24891;SDS011;12954;50.688;10.908;2022-10-28T15:22:15;9.05;;;2.50;;
24891;SDS011;12954;50.688;10.908;2022-10-28T15:24:51;10.90;;;3.05;;
24891;SDS011;12954;50.688;10.908;2022-10-28T15:27:23;8.77;;;2.63;;
24891;SDS011;12954;50.688;10.908;2022-10-28T15:29:53;9.32;;;2.33;;
24891;SDS011;12954;50.688;10.908;2022-10-28T15:32:26;8.00;;;2.20;;
24891;SDS011;12954;50.688;10.908;2022-10-28T15:34:56;8.68;;;2.13;;
24891;SDS011;12954;50.688;10.908;2022-10-28T15:37:26;9.30;;;2.25;;
24891;SDS011;12954;50.688;10.908;2022-10-28T15:40:10;8.18;;;2.50;;
24891;SDS011;12954;50.688;10.908;2022-10-28T15:42:49;17.52;;;2.95;;
24891;SDS011;12954;50.688;10.908;2022-10-28T15:45:23;6.05;;;2.30;;
24891;SDS011;12954;50.688;10.908;2022-10-28T15:47:53;9.38;;;2.60;;
24891;SDS011;12954;50.688;10.908;2022-10-28T15:50:27;10.05;;;2.47;;
24891;SDS011;12954;50.688;10.908;2022-10-28T15:59:04;11.88;;;2.65;;
24891;SDS011;12954;50.688;10.908;2022-10-28T16:01:46;8.68;;;2.42;;
24891;SDS011;12954;50.688;10.908;2022-10-28T16:07:10;5.05;;;2.20;;